sensor_id;sensor_type;location;lat;lon;timestamp;temperature;humidity
44607;DHT22;30315;46.072;14.474;2022-10-23T00:01:42;15.80;93.80
44607;DHT22;30315;46.072;14.474;2022-10-23T00:04:14;15.80;93.90
44607;DHT22;30315;46.072;14.474;2022-10-23T00:06:41;15.80;93.80
44607;DHT22;30315;46.072;14.474;2022-10-23T00:09:09;15.80;93.70
44607;DHT22;30315;46.072;14.474;2022-10-23T00:11:38;15.80;93.90
44607;DHT22;30315;46.072;14.474;2022-10-23T00:14:05;15.80;94.10
44607;DHT22;30315;46.072;14.474;2022-10-23T00:16:33;15.80;94.00
44607;DHT22;30315;46.072;14.474;2022-10-23T00:19:00;15.80;94.00
44607;DHT22;30315;46.072;14.474;2022-10-23T00:21:26;15.70;93.90
44607;DHT22;30315;46.072;14.474;2022-10-23T00:23:53;15.80;93.90
44607;DHT22;30315;46.072;14.474;2022-10-23T00:26:20;15.80;93.80
44607;DHT22;30315;46.072;14.474;2022-10-23T00:28:49;15.80;93.80
44607;DHT22;30315;46.072;14.474;2022-10-23T00:31:16;15.70;93.60
44607;DHT22;30315;46.072;14.474;2022-10-23T00:33:43;15.80;93.60
44607;DHT22;30315;46.072;14.474;2022-10-23T00:36:11;15.80;93.60
44607;DHT22;30315;46.072;14.474;2022-10-23T00:38:38;15.70;93.30
44607;DHT22;30315;46.072;14.474;2022-10-23T00:41:06;15.70;93.30
44607;DHT22;30315;46.072;14.474;2022-10-23T00:43:33;15.70;93.40
44607;DHT22;30315;46.072;14.474;2022-10-23T00:46:00;15.70;93.40
44607;DHT22;30315;46.072;14.474;2022-10-23T00:48:27;15.70;93.40
44607;DHT22;30315;46.072;14.474;2022-10-23T00:50:55;15.70;93.50
44607;DHT22;30315;46.072;14.474;2022-10-23T00:53:23;15.70;93.60
44607;DHT22;30315;46.072;14.474;2022-10-23T00:55:50;15.70;93.60
44607;DHT22;30315;46.072;14.474;2022-10-23T00:58:20;15.60;93.70
44607;DHT22;30315;46.072;14.474;2022-10-23T01:00:51;15.70;93.80
44607;DHT22;30315;46.072;14.474;2022-10-23T01:03:19;15.70;93.80
44607;DHT22;30315;46.072;14.474;2022-10-23T01:13:36;15.70;94.10
44607;DHT22;30315;46.072;14.474;2022-10-23T01:16:05;15.70;94.10
44607;DHT22;30315;46.072;14.474;2022-10-23T01:18:44;15.70;94.20
44607;DHT22;30315;46.072;14.474;2022-10-23T01:26:34;15.70;94.10
44607;DHT22;30315;46.072;14.474;2022-10-23T01:31:34;15.70;94.20
44607;DHT22;30315;46.072;14.474;2022-10-23T01:34:05;15.70;94.30
44607;DHT22;30315;46.072;14.474;2022-10-23T01:36:34;15.60;94.20
44607;DHT22;30315;46.072;14.474;2022-10-23T01:39:06;15.60;94.40
44607;DHT22;30315;46.072;14.474;2022-10-23T01:42:18;15.60;94.30
44607;DHT22;30315;46.072;14.474;2022-10-23T01:44:40;15.60;94.20
44607;DHT22;30315;46.072;14.474;2022-10-23T01:47:09;15.60;94.00
44607;DHT22;30315;46.072;14.474;2022-10-23T01:49:51;15.60;93.90
44607;DHT22;30315;46.072;14.474;2022-10-23T01:52:20;15.50;93.90
44607;DHT22;30315;46.072;14.474;2022-10-23T01:54:49;15.60;94.00
44607;DHT22;30315;46.072;14.474;2022-10-23T01:57:17;15.70;93.90
44607;DHT22;30315;46.072;14.474;2022-10-23T01:59:46;15.60;93.80
44607;DHT22;30315;46.072;14.474;2022-10-23T02:02:14;15.60;93.80
44607;DHT22;30315;46.072;14.474;2022-10-23T02:04:48;15.60;93.70
44607;DHT22;30315;46.072;14.474;2022-10-23T02:07:16;15.50;93.70
44607;DHT22;30315;46.072;14.474;2022-10-23T02:09:43;15.50;93.60
44607;DHT22;30315;46.072;14.474;2022-10-23T02:12:12;15.50;93.50
44607;DHT22;30315;46.072;14.474;2022-10-23T02:20:26;15.70;93.40
44607;DHT22;30315;46.072;14.474;2022-10-23T02:23:58;15.50;93.20
44607;DHT22;30315;46.072;14.474;2022-10-23T02:28:22;15.40;93.30
44607;DHT22;30315;46.072;14.474;2022-10-23T02:30:58;15.40;93.40
44607;DHT22;30315;46.072;14.474;2022-10-23T02:33:26;15.50;93.40
44607;DHT22;30315;46.072;14.474;2022-10-23T02:35:54;15.40;93.40
44607;DHT22;30315;46.072;14.474;2022-10-23T02:38:30;15.40;93.40
44607;DHT22;30315;46.072;14.474;2022-10-23T02:41:00;15.40;93.60
44607;DHT22;30315;46.072;14.474;2022-10-23T02:43:36;15.40;93.50
44607;DHT22;30315;46.072;14.474;2022-10-23T02:46:28;15.40;93.60
44607;DHT22;30315;46.072;14.474;2022-10-23T02:49:03;15.40;93.60
44607;DHT22;30315;46.072;14.474;2022-10-23T02:51:53;15.30;93.60
44607;DHT22;30315;46.072;14.474;2022-10-23T02:54:35;15.40;93.70
44607;DHT22;30315;46.072;14.474;2022-10-23T02:57:05;15.30;93.60
44607;DHT22;30315;46.072;14.474;2022-10-23T03:00:23;15.40;93.60
44607;DHT22;30315;46.072;14.474;2022-10-23T03:02:27;15.40;93.60
44607;DHT22;30315;46.072;14.474;2022-10-23T03:04:58;15.40;93.70
44607;DHT22;30315;46.072;14.474;2022-10-23T03:07:26;15.40;93.70
44607;DHT22;30315;46.072;14.474;2022-10-23T03:10:00;15.40;93.60
44607;DHT22;30315;46.072;14.474;2022-10-23T03:12:29;15.30;93.60
44607;DHT22;30315;46.072;14.474;2022-10-23T03:14:56;15.30;93.60
44607;DHT22;30315;46.072;14.474;2022-10-23T03:17:23;15.40;93.60
44607;DHT22;30315;46.072;14.474;2022-10-23T03:19:54;15.30;93.50
44607;DHT22;30315;46.072;14.474;2022-10-23T03:22:21;15.30;93.50
44607;DHT22;30315;46.072;14.474;2022-10-23T03:24:48;15.30;93.50
44607;DHT22;30315;46.072;14.474;2022-10-23T03:27:14;15.30;93.60
44607;DHT22;30315;46.072;14.474;2022-10-23T03:29:42;15.20;93.60
44607;DHT22;30315;46.072;14.474;2022-10-23T03:32:08;15.30;93.60
44607;DHT22;30315;46.072;14.474;2022-10-23T03:34:35;15.30;93.50
44607;DHT22;30315;46.072;14.474;2022-10-23T03:37:03;15.20;93.40
44607;DHT22;30315;46.072;14.474;2022-10-23T03:39:30;15.20;93.40
44607;DHT22;30315;46.072;14.474;2022-10-23T03:41:57;15.20;93.50
44607;DHT22;30315;46.072;14.474;2022-10-23T03:44:24;15.20;93.40
44607;DHT22;30315;46.072;14.474;2022-10-23T03:46:51;15.20;93.40
44607;DHT22;30315;46.072;14.474;2022-10-23T03:49:17;15.20;93.40
44607;DHT22;30315;46.072;14.474;2022-10-23T03:51:44;15.20;93.30
44607;DHT22;30315;46.072;14.474;2022-10-23T03:54:23;15.20;93.30
44607;DHT22;30315;46.072;14.474;2022-10-23T03:56:50;15.20;93.30
44607;DHT22;30315;46.072;14.474;2022-10-23T03:59:23;15.20;93.30
44607;DHT22;30315;46.072;14.474;2022-10-23T04:01:50;15.20;93.30
44607;DHT22;30315;46.072;14.474;2022-10-23T04:04:17;15.20;93.20
44607;DHT22;30315;46.072;14.474;2022-10-23T04:06:43;15.20;93.20
44607;DHT22;30315;46.072;14.474;2022-10-23T04:09:11;15.20;93.30
44607;DHT22;30315;46.072;14.474;2022-10-23T04:11:38;15.20;93.50
44607;DHT22;30315;46.072;14.474;2022-10-23T04:14:05;15.20;93.50
44607;DHT22;30315;46.072;14.474;2022-10-23T04:16:36;15.20;93.50
44607;DHT22;30315;46.072;14.474;2022-10-23T04:19:04;15.10;93.40
44607;DHT22;30315;46.072;14.474;2022-10-23T04:21:31;15.10;93.50
44607;DHT22;30315;46.072;14.474;2022-10-23T04:23:59;15.10;93.70
44607;DHT22;30315;46.072;14.474;2022-10-23T04:26:26;15.20;93.70
44607;DHT22;30315;46.072;14.474;2022-10-23T04:28:53;15.10;93.70
44607;DHT22;30315;46.072;14.474;2022-10-23T04:31:20;15.10;93.70
44607;DHT22;30315;46.072;14.474;2022-10-23T04:33:47;15.20;93.70
44607;DHT22;30315;46.072;14.474;2022-10-23T04:36:30;15.20;93.70
44607;DHT22;30315;46.072;14.474;2022-10-23T04:39:05;15.20;93.50
44607;DHT22;30315;46.072;14.474;2022-10-23T04:41:32;15.20;93.50
44607;DHT22;30315;46.072;14.474;2022-10-23T04:43:59;15.20;93.50
44607;DHT22;30315;46.072;14.474;2022-10-23T04:46:26;15.20;93.40
44607;DHT22;30315;46.072;14.474;2022-10-23T04:48:53;15.20;93.40
44607;DHT22;30315;46.072;14.474;2022-10-23T04:51:28;15.20;93.40
44607;DHT22;30315;46.072;14.474;2022-10-23T04:54:04;15.10;93.20
44607;DHT22;30315;46.072;14.474;2022-10-23T04:56:42;15.20;93.30
44607;DHT22;30315;46.072;14.474;2022-10-23T04:59:18;15.10;93.30
44607;DHT22;30315;46.072;14.474;2022-10-23T05:01:45;15.10;93.30
44607;DHT22;30315;46.072;14.474;2022-10-23T05:04:12;15.10;93.30
44607;DHT22;30315;46.072;14.474;2022-10-23T05:06:59;15.10;93.30
44607;DHT22;30315;46.072;14.474;2022-10-23T05:09:36;15.10;93.40
44607;DHT22;30315;46.072;14.474;2022-10-23T05:12:25;15.10;93.40
44607;DHT22;30315;46.072;14.474;2022-10-23T05:14:53;15.10;93.50
44607;DHT22;30315;46.072;14.474;2022-10-23T05:17:45;15.10;93.80
44607;DHT22;30315;46.072;14.474;2022-10-23T05:20:15;15.20;93.50
44607;DHT22;30315;46.072;14.474;2022-10-23T05:22:44;15.10;93.30
44607;DHT22;30315;46.072;14.474;2022-10-23T05:25:13;15.10;93.30
44607;DHT22;30315;46.072;14.474;2022-10-23T05:27:46;15.10;93.50
44607;DHT22;30315;46.072;14.474;2022-10-23T05:30:14;15.00;93.60
44607;DHT22;30315;46.072;14.474;2022-10-23T05:32:41;15.10;93.70
44607;DHT22;30315;46.072;14.474;2022-10-23T05:35:10;15.10;93.70
44607;DHT22;30315;46.072;14.474;2022-10-23T05:37:40;15.10;93.70
44607;DHT22;30315;46.072;14.474;2022-10-23T05:40:16;15.10;93.80
44607;DHT22;30315;46.072;14.474;2022-10-23T05:42:44;15.10;93.80
44607;DHT22;30315;46.072;14.474;2022-10-23T05:45:15;15.10;93.80
44607;DHT22;30315;46.072;14.474;2022-10-23T05:48:00;15.10;93.90
44607;DHT22;30315;46.072;14.474;2022-10-23T05:51:10;15.10;93.80
44607;DHT22;30315;46.072;14.474;2022-10-23T05:54:06;15.00;93.80
44607;DHT22;30315;46.072;14.474;2022-10-23T05:56:45;15.10;94.10
44607;DHT22;30315;46.072;14.474;2022-10-23T05:59:28;15.10;94.20
44607;DHT22;30315;46.072;14.474;2022-10-23T06:02:17;15.10;94.30
44607;DHT22;30315;46.072;14.474;2022-10-23T06:04:51;15.10;94.20
44607;DHT22;30315;46.072;14.474;2022-10-23T06:07:36;15.10;94.10
44607;DHT22;30315;46.072;14.474;2022-10-23T06:10:05;15.20;94.20
44607;DHT22;30315;46.072;14.474;2022-10-23T06:12:36;15.10;94.30
44607;DHT22;30315;46.072;14.474;2022-10-23T06:15:03;15.10;94.20
44607;DHT22;30315;46.072;14.474;2022-10-23T06:17:52;15.10;94.10
44607;DHT22;30315;46.072;14.474;2022-10-23T06:20:19;15.10;94.20
44607;DHT22;30315;46.072;14.474;2022-10-23T06:23:02;15.10;94.30
44607;DHT22;30315;46.072;14.474;2022-10-23T06:25:50;15.20;94.40
44607;DHT22;30315;46.072;14.474;2022-10-23T06:28:23;15.10;94.30
44607;DHT22;30315;46.072;14.474;2022-10-23T06:30:50;15.20;94.40
44607;DHT22;30315;46.072;14.474;2022-10-23T06:33:17;15.20;94.70
44607;DHT22;30315;46.072;14.474;2022-10-23T06:35:44;15.30;94.70
44607;DHT22;30315;46.072;14.474;2022-10-23T06:38:12;15.20;94.90
44607;DHT22;30315;46.072;14.474;2022-10-23T06:40:51;15.30;94.90
44607;DHT22;30315;46.072;14.474;2022-10-23T06:43:24;15.30;94.70
44607;DHT22;30315;46.072;14.474;2022-10-23T06:46:06;15.30;94.60
44607;DHT22;30315;46.072;14.474;2022-10-23T06:48:54;15.30;94.40
44607;DHT22;30315;46.072;14.474;2022-10-23T06:51:25;15.30;94.30
44607;DHT22;30315;46.072;14.474;2022-10-23T06:53:55;15.30;94.30
44607;DHT22;30315;46.072;14.474;2022-10-23T06:56:41;15.30;94.30
44607;DHT22;30315;46.072;14.474;2022-10-23T06:59:09;15.30;94.30
44607;DHT22;30315;46.072;14.474;2022-10-23T07:01:37;15.30;94.30
44607;DHT22;30315;46.072;14.474;2022-10-23T07:04:05;15.40;94.40
44607;DHT22;30315;46.072;14.474;2022-10-23T07:06:32;15.50;94.60
44607;DHT22;30315;46.072;14.474;2022-10-23T07:08:59;15.40;94.60
44607;DHT22;30315;46.072;14.474;2022-10-23T07:11:44;15.30;94.40
44607;DHT22;30315;46.072;14.474;2022-10-23T07:14:11;15.40;94.30
44607;DHT22;30315;46.072;14.474;2022-10-23T07:16:38;15.40;94.30
44607;DHT22;30315;46.072;14.474;2022-10-23T07:19:07;15.10;94.30
44607;DHT22;30315;46.072;14.474;2022-10-23T07:21:54;15.40;94.40
44607;DHT22;30315;46.072;14.474;2022-10-23T07:24:41;15.50;94.60
44607;DHT22;30315;46.072;14.474;2022-10-23T07:27:25;15.40;94.60
44607;DHT22;30315;46.072;14.474;2022-10-23T07:29:55;15.50;94.50
44607;DHT22;30315;46.072;14.474;2022-10-23T07:32:22;15.50;94.60
44607;DHT22;30315;46.072;14.474;2022-10-23T07:35:16;15.50;94.40
44607;DHT22;30315;46.072;14.474;2022-10-23T07:38:01;15.50;94.40
44607;DHT22;30315;46.072;14.474;2022-10-23T07:40:31;15.50;94.50
44607;DHT22;30315;46.072;14.474;2022-10-23T07:42:58;15.40;94.50
44607;DHT22;30315;46.072;14.474;2022-10-23T07:45:25;15.50;94.40
44607;DHT22;30315;46.072;14.474;2022-10-23T07:47:52;15.50;94.40
44607;DHT22;30315;46.072;14.474;2022-10-23T07:50:23;15.50;94.50
44607;DHT22;30315;46.072;14.474;2022-10-23T07:52:50;15.50;94.20
44607;DHT22;30315;46.072;14.474;2022-10-23T07:55:17;15.50;94.30
44607;DHT22;30315;46.072;14.474;2022-10-23T07:57:51;15.50;94.40
44607;DHT22;30315;46.072;14.474;2022-10-23T08:00:34;15.50;94.30
44607;DHT22;30315;46.072;14.474;2022-10-23T08:03:11;15.50;94.30
44607;DHT22;30315;46.072;14.474;2022-10-23T08:05:39;15.60;94.20
44607;DHT22;30315;46.072;14.474;2022-10-23T08:08:06;15.50;94.10
44607;DHT22;30315;46.072;14.474;2022-10-23T08:10:35;15.50;94.00
44607;DHT22;30315;46.072;14.474;2022-10-23T08:13:03;15.50;94.10
44607;DHT22;30315;46.072;14.474;2022-10-23T08:15:49;15.50;94.20
44607;DHT22;30315;46.072;14.474;2022-10-23T08:18:36;15.50;94.20
44607;DHT22;30315;46.072;14.474;2022-10-23T08:21:03;15.50;94.30
44607;DHT22;30315;46.072;14.474;2022-10-23T08:23:31;15.50;94.20
44607;DHT22;30315;46.072;14.474;2022-10-23T08:25:59;15.50;94.00
44607;DHT22;30315;46.072;14.474;2022-10-23T08:28:29;15.50;94.10
44607;DHT22;30315;46.072;14.474;2022-10-23T08:30:58;15.50;94.20
44607;DHT22;30315;46.072;14.474;2022-10-23T08:33:31;15.50;94.30
44607;DHT22;30315;46.072;14.474;2022-10-23T08:35:58;15.60;94.20
44607;DHT22;30315;46.072;14.474;2022-10-23T08:38:30;15.50;93.80
44607;DHT22;30315;46.072;14.474;2022-10-23T08:40:58;15.60;94.00
44607;DHT22;30315;46.072;14.474;2022-10-23T08:43:46;15.60;94.10
44607;DHT22;30315;46.072;14.474;2022-10-23T08:46:33;15.60;94.30
44607;DHT22;30315;46.072;14.474;2022-10-23T08:52:00;15.70;94.60
44607;DHT22;30315;46.072;14.474;2022-10-23T08:57:02;15.80;94.70
44607;DHT22;30315;46.072;14.474;2022-10-23T08:59:46;15.90;94.30
44607;DHT22;30315;46.072;14.474;2022-10-23T09:02:20;15.90;94.40
44607;DHT22;30315;46.072;14.474;2022-10-23T09:04:48;15.90;94.50
44607;DHT22;30315;46.072;14.474;2022-10-23T09:12:40;16.00;94.10
44607;DHT22;30315;46.072;14.474;2022-10-23T09:15:25;16.00;94.20
44607;DHT22;30315;46.072;14.474;2022-10-23T09:17:55;16.10;94.10
44607;DHT22;30315;46.072;14.474;2022-10-23T09:22:54;16.00;93.90
44607;DHT22;30315;46.072;14.474;2022-10-23T09:25:22;16.10;94.10
44607;DHT22;30315;46.072;14.474;2022-10-23T09:27:52;15.90;94.10
44607;DHT22;30315;46.072;14.474;2022-10-23T09:30:27;16.20;94.10
44607;DHT22;30315;46.072;14.474;2022-10-23T09:32:55;16.10;94.20
44607;DHT22;30315;46.072;14.474;2022-10-23T09:35:22;16.20;94.60
44607;DHT22;30315;46.072;14.474;2022-10-23T09:37:49;16.30;94.70
44607;DHT22;30315;46.072;14.474;2022-10-23T09:43:16;16.40;94.80
44607;DHT22;30315;46.072;14.474;2022-10-23T09:45:54;16.40;94.80
44607;DHT22;30315;46.072;14.474;2022-10-23T09:48:21;16.40;94.90
44607;DHT22;30315;46.072;14.474;2022-10-23T09:55:54;16.50;94.80
44607;DHT22;30315;46.072;14.474;2022-10-23T09:58:33;16.40;94.40
44607;DHT22;30315;46.072;14.474;2022-10-23T10:01:01;16.40;94.40
44607;DHT22;30315;46.072;14.474;2022-10-23T10:03:49;16.40;94.50
44607;DHT22;30315;46.072;14.474;2022-10-23T10:06:20;16.40;94.60
44607;DHT22;30315;46.072;14.474;2022-10-23T10:08:49;16.40;94.70
44607;DHT22;30315;46.072;14.474;2022-10-23T10:13:57;16.40;94.60
44607;DHT22;30315;46.072;14.474;2022-10-23T10:22:11;16.50;95.20
44607;DHT22;30315;46.072;14.474;2022-10-23T10:24:47;16.50;95.20
44607;DHT22;30315;46.072;14.474;2022-10-23T10:29:57;16.70;95.30
44607;DHT22;30315;46.072;14.474;2022-10-23T10:32:42;16.70;95.30
44607;DHT22;30315;46.072;14.474;2022-10-23T10:35:35;16.80;95.50
44607;DHT22;30315;46.072;14.474;2022-10-23T10:38:09;16.80;95.50
44607;DHT22;30315;46.072;14.474;2022-10-23T10:43:22;16.90;94.60
44607;DHT22;30315;46.072;14.474;2022-10-23T10:45:53;16.90;94.60
44607;DHT22;30315;46.072;14.474;2022-10-23T10:54:01;17.00;95.10
44607;DHT22;30315;46.072;14.474;2022-10-23T10:56:32;17.00;94.80
44607;DHT22;30315;46.072;14.474;2022-10-23T10:59:01;17.00;94.70
44607;DHT22;30315;46.072;14.474;2022-10-23T11:01:34;17.00;94.30
44607;DHT22;30315;46.072;14.474;2022-10-23T11:04:16;17.00;94.30
44607;DHT22;30315;46.072;14.474;2022-10-23T11:07:00;17.00;94.40
44607;DHT22;30315;46.072;14.474;2022-10-23T11:09:48;17.10;94.50
44607;DHT22;30315;46.072;14.474;2022-10-23T11:12:25;17.10;94.30
44607;DHT22;30315;46.072;14.474;2022-10-23T11:15:10;17.10;94.40
44607;DHT22;30315;46.072;14.474;2022-10-23T11:17:56;17.10;94.40
44607;DHT22;30315;46.072;14.474;2022-10-23T11:20:39;17.20;94.60
44607;DHT22;30315;46.072;14.474;2022-10-23T11:30:21;17.40;94.70
44607;DHT22;30315;46.072;14.474;2022-10-23T11:36:42;17.50;94.50
44607;DHT22;30315;46.072;14.474;2022-10-23T11:42:57;17.70;94.60
44607;DHT22;30315;46.072;14.474;2022-10-23T11:48:02;17.80;94.10
44607;DHT22;30315;46.072;14.474;2022-10-23T11:50:50;17.90;94.30
44607;DHT22;30315;46.072;14.474;2022-10-23T11:53:36;18.00;94.50
44607;DHT22;30315;46.072;14.474;2022-10-23T12:19:53;18.40;92.60
44607;DHT22;30315;46.072;14.474;2022-10-23T12:22:26;18.50;92.80
44607;DHT22;30315;46.072;14.474;2022-10-23T12:25:15;18.50;93.00
44607;DHT22;30315;46.072;14.474;2022-10-23T12:30:42;18.50;92.80
44607;DHT22;30315;46.072;14.474;2022-10-23T12:33:36;18.40;92.60
44607;DHT22;30315;46.072;14.474;2022-10-23T12:38:59;18.30;93.00
44607;DHT22;30315;46.072;14.474;2022-10-23T12:41:27;18.30;93.10
44607;DHT22;30315;46.072;14.474;2022-10-23T12:44:03;18.40;93.40
44607;DHT22;30315;46.072;14.474;2022-10-23T12:46:48;18.30;93.40
44607;DHT22;30315;46.072;14.474;2022-10-23T12:49:32;18.40;93.40
44607;DHT22;30315;46.072;14.474;2022-10-23T12:59:17;18.40;93.60
44607;DHT22;30315;46.072;14.474;2022-10-23T13:02:32;18.40;93.70
44607;DHT22;30315;46.072;14.474;2022-10-23T13:05:20;18.50;94.00
44607;DHT22;30315;46.072;14.474;2022-10-23T13:07:47;18.50;94.00
44607;DHT22;30315;46.072;14.474;2022-10-23T13:10:20;18.60;94.20
44607;DHT22;30315;46.072;14.474;2022-10-23T13:12:59;18.80;94.10
44607;DHT22;30315;46.072;14.474;2022-10-23T13:15:36;18.80;93.70
44607;DHT22;30315;46.072;14.474;2022-10-23T13:18:03;19.00;93.80
44607;DHT22;30315;46.072;14.474;2022-10-23T13:20:34;19.10;93.80
44607;DHT22;30315;46.072;14.474;2022-10-23T13:25:36;19.30;92.90
44607;DHT22;30315;46.072;14.474;2022-10-23T13:28:26;19.30;92.40
44607;DHT22;30315;46.072;14.474;2022-10-23T13:30:59;19.30;92.00
44607;DHT22;30315;46.072;14.474;2022-10-23T13:33:31;19.30;91.60
44607;DHT22;30315;46.072;14.474;2022-10-23T13:36:04;19.30;91.60
44607;DHT22;30315;46.072;14.474;2022-10-23T13:38:33;19.30;91.50
44607;DHT22;30315;46.072;14.474;2022-10-23T13:41:01;19.30;91.40
44607;DHT22;30315;46.072;14.474;2022-10-23T13:43:29;19.30;91.50
44607;DHT22;30315;46.072;14.474;2022-10-23T13:45:59;19.20;91.60
44607;DHT22;30315;46.072;14.474;2022-10-23T13:48:27;19.20;91.60
44607;DHT22;30315;46.072;14.474;2022-10-23T13:50:56;19.10;91.50
44607;DHT22;30315;46.072;14.474;2022-10-23T13:53:26;19.10;91.60
44607;DHT22;30315;46.072;14.474;2022-10-23T13:55:53;19.10;91.60
44607;DHT22;30315;46.072;14.474;2022-10-23T13:58:24;19.00;91.70
44607;DHT22;30315;46.072;14.474;2022-10-23T14:00:51;19.00;91.90
44607;DHT22;30315;46.072;14.474;2022-10-23T14:03:18;19.00;92.10
44607;DHT22;30315;46.072;14.474;2022-10-23T14:05:50;19.00;92.10
44607;DHT22;30315;46.072;14.474;2022-10-23T14:08:17;19.00;91.90
44607;DHT22;30315;46.072;14.474;2022-10-23T14:10:44;18.90;92.00
44607;DHT22;30315;46.072;14.474;2022-10-23T14:13:11;19.00;92.20
44607;DHT22;30315;46.072;14.474;2022-10-23T14:15:38;18.90;92.30
44607;DHT22;30315;46.072;14.474;2022-10-23T14:18:05;18.90;92.30
44607;DHT22;30315;46.072;14.474;2022-10-23T14:20:36;18.90;92.40
44607;DHT22;30315;46.072;14.474;2022-10-23T14:23:03;18.90;92.40
44607;DHT22;30315;46.072;14.474;2022-10-23T14:25:30;18.90;92.50
44607;DHT22;30315;46.072;14.474;2022-10-23T14:27:57;18.80;92.70
44607;DHT22;30315;46.072;14.474;2022-10-23T14:30:24;18.80;92.80
44607;DHT22;30315;46.072;14.474;2022-10-23T14:32:50;18.80;92.90
44607;DHT22;30315;46.072;14.474;2022-10-23T14:35:17;18.80;93.10
44607;DHT22;30315;46.072;14.474;2022-10-23T14:37:44;18.80;93.20
44607;DHT22;30315;46.072;14.474;2022-10-23T14:40:12;18.70;93.30
44607;DHT22;30315;46.072;14.474;2022-10-23T14:42:38;18.80;93.40
44607;DHT22;30315;46.072;14.474;2022-10-23T14:45:05;18.70;93.40
44607;DHT22;30315;46.072;14.474;2022-10-23T14:47:32;18.70;93.50
44607;DHT22;30315;46.072;14.474;2022-10-23T14:49:59;18.60;93.50
44607;DHT22;30315;46.072;14.474;2022-10-23T14:52:26;18.70;93.60
44607;DHT22;30315;46.072;14.474;2022-10-23T14:54:53;18.60;93.60
44607;DHT22;30315;46.072;14.474;2022-10-23T14:57:20;18.60;93.70
44607;DHT22;30315;46.072;14.474;2022-10-23T14:59:50;18.60;93.70
44607;DHT22;30315;46.072;14.474;2022-10-23T15:02:17;18.60;93.80
44607;DHT22;30315;46.072;14.474;2022-10-23T15:04:44;18.60;93.90
44607;DHT22;30315;46.072;14.474;2022-10-23T15:07:11;18.60;94.00
44607;DHT22;30315;46.072;14.474;2022-10-23T15:09:42;18.20;93.90
44607;DHT22;30315;46.072;14.474;2022-10-23T15:12:12;18.60;94.10
44607;DHT22;30315;46.072;14.474;2022-10-23T15:14:39;18.60;94.20
44607;DHT22;30315;46.072;14.474;2022-10-23T15:17:06;18.50;94.10
44607;DHT22;30315;46.072;14.474;2022-10-23T15:19:38;18.60;94.20
44607;DHT22;30315;46.072;14.474;2022-10-23T15:22:05;18.60;94.10
44607;DHT22;30315;46.072;14.474;2022-10-23T15:24:32;18.60;94.10
44607;DHT22;30315;46.072;14.474;2022-10-23T15:26:58;18.70;94.10
44607;DHT22;30315;46.072;14.474;2022-10-23T15:29:26;18.70;94.10
44607;DHT22;30315;46.072;14.474;2022-10-23T15:31:54;18.60;94.10
44607;DHT22;30315;46.072;14.474;2022-10-23T15:34:22;18.60;94.10
44607;DHT22;30315;46.072;14.474;2022-10-23T15:36:49;18.70;94.20
44607;DHT22;30315;46.072;14.474;2022-10-23T15:39:17;18.70;94.20
44607;DHT22;30315;46.072;14.474;2022-10-23T15:41:45;18.70;94.20
44607;DHT22;30315;46.072;14.474;2022-10-23T15:44:13;18.70;94.20
44607;DHT22;30315;46.072;14.474;2022-10-23T15:46:40;18.60;94.30
44607;DHT22;30315;46.072;14.474;2022-10-23T15:49:07;18.60;94.50
44607;DHT22;30315;46.072;14.474;2022-10-23T15:51:35;18.70;94.70
44607;DHT22;30315;46.072;14.474;2022-10-23T15:54:03;18.60;94.80
44607;DHT22;30315;46.072;14.474;2022-10-23T15:56:30;18.60;94.90
44607;DHT22;30315;46.072;14.474;2022-10-23T15:58:57;18.60;95.00
44607;DHT22;30315;46.072;14.474;2022-10-23T16:01:24;18.60;95.10
44607;DHT22;30315;46.072;14.474;2022-10-23T16:03:51;18.50;95.20
44607;DHT22;30315;46.072;14.474;2022-10-23T16:06:18;18.60;95.30
44607;DHT22;30315;46.072;14.474;2022-10-23T16:08:45;18.50;95.40
44607;DHT22;30315;46.072;14.474;2022-10-23T16:11:20;18.60;95.60
44607;DHT22;30315;46.072;14.474;2022-10-23T16:13:47;18.50;95.60
44607;DHT22;30315;46.072;14.474;2022-10-23T16:16:16;18.50;95.60
44607;DHT22;30315;46.072;14.474;2022-10-23T16:18:43;18.50;95.70
44607;DHT22;30315;46.072;14.474;2022-10-23T16:21:17;18.50;95.90
44607;DHT22;30315;46.072;14.474;2022-10-23T16:23:44;18.50;96.00
44607;DHT22;30315;46.072;14.474;2022-10-23T16:26:11;18.50;96.10
44607;DHT22;30315;46.072;14.474;2022-10-23T16:28:38;18.50;96.20
44607;DHT22;30315;46.072;14.474;2022-10-23T16:31:08;18.50;96.40
44607;DHT22;30315;46.072;14.474;2022-10-23T16:33:36;18.50;96.40
44607;DHT22;30315;46.072;14.474;2022-10-23T16:36:06;18.50;96.50
44607;DHT22;30315;46.072;14.474;2022-10-23T16:38:53;18.50;96.60
44607;DHT22;30315;46.072;14.474;2022-10-23T16:41:40;18.50;96.70
44607;DHT22;30315;46.072;14.474;2022-10-23T16:44:16;18.50;96.80
44607;DHT22;30315;46.072;14.474;2022-10-23T16:47:12;18.50;96.90
44607;DHT22;30315;46.072;14.474;2022-10-23T16:49:38;18.50;96.90
44607;DHT22;30315;46.072;14.474;2022-10-23T16:52:05;18.50;97.00
44607;DHT22;30315;46.072;14.474;2022-10-23T16:54:32;18.40;97.00
44607;DHT22;30315;46.072;14.474;2022-10-23T16:56:59;18.40;97.10
44607;DHT22;30315;46.072;14.474;2022-10-23T16:59:26;18.40;97.10
44607;DHT22;30315;46.072;14.474;2022-10-23T17:01:53;18.30;97.10
44607;DHT22;30315;46.072;14.474;2022-10-23T17:04:20;18.50;97.30
44607;DHT22;30315;46.072;14.474;2022-10-23T17:06:47;18.40;97.30
44607;DHT22;30315;46.072;14.474;2022-10-23T17:09:13;18.40;97.40
44607;DHT22;30315;46.072;14.474;2022-10-23T17:11:40;18.40;97.50
44607;DHT22;30315;46.072;14.474;2022-10-23T17:14:14;18.40;97.50
44607;DHT22;30315;46.072;14.474;2022-10-23T17:16:43;18.40;97.50
44607;DHT22;30315;46.072;14.474;2022-10-23T17:19:11;18.30;97.50
44607;DHT22;30315;46.072;14.474;2022-10-23T17:21:52;18.40;97.60
44607;DHT22;30315;46.072;14.474;2022-10-23T17:24:20;18.40;97.70
44607;DHT22;30315;46.072;14.474;2022-10-23T17:26:46;18.40;97.90
44607;DHT22;30315;46.072;14.474;2022-10-23T17:29:14;18.40;98.00
44607;DHT22;30315;46.072;14.474;2022-10-23T17:31:42;18.40;98.00
44607;DHT22;30315;46.072;14.474;2022-10-23T17:34:13;18.40;97.90
44607;DHT22;30315;46.072;14.474;2022-10-23T17:36:42;18.50;97.90
44607;DHT22;30315;46.072;14.474;2022-10-23T17:39:09;18.40;97.80
44607;DHT22;30315;46.072;14.474;2022-10-23T17:41:37;18.40;97.80
44607;DHT22;30315;46.072;14.474;2022-10-23T17:44:03;18.50;97.90
44607;DHT22;30315;46.072;14.474;2022-10-23T17:46:30;18.50;98.20